createdAt,value
2024-01-15T00:00:58.664Z,0.57
2024-01-15T00:01:58.468Z,0.58
2024-01-15T00:02:58.557Z,0.57
2024-01-15T00:03:58.604Z,0.59
2024-01-15T00:04:58.621Z,0.58
2024-01-15T00:05:58.598Z,0.57
2024-01-15T00:06:58.753Z,0.58
2024-01-15T00:07:58.646Z,0.57
2024-01-15T00:08:58.675Z,0.58
2024-01-15T00:09:58.738Z,0.57
2024-01-15T00:10:58.778Z,0.57
2024-01-15T00:11:58.821Z,0.58
2024-01-15T00:12:58.849Z,0.58
2024-01-15T00:13:58.898Z,0.57
2024-01-15T00:14:58.957Z,0.57
2024-01-15T00:15:59.077Z,0.57
2024-01-15T00:16:59.018Z,0.58
2024-01-15T00:17:59.070Z,0.57
2024-01-15T00:18:59.194Z,0.57
2024-01-15T00:19:59.131Z,0.57
2024-01-15T00:20:59.157Z,0.57
2024-01-15T00:21:59.197Z,0.57
2024-01-15T00:22:59.237Z,0.56
2024-01-15T00:23:59.264Z,0.58
2024-01-15T00:24:59.336Z,0.57
2024-01-15T00:25:59.386Z,0.59
2024-01-15T00:26:59.443Z,0.57
2024-01-15T00:27:59.531Z,0.58
2024-01-15T00:28:59.572Z,0.59
2024-01-15T00:29:59.629Z,0.57
2024-01-15T00:30:59.748Z,0.58
2024-01-15T00:31:59.773Z,0.57
2024-01-15T00:32:59.899Z,0.58
2024-01-15T00:34:00.231Z,0.57
2024-01-15T00:34:59.954Z,0.58
2024-01-15T00:36:00.044Z,0.57
2024-01-15T00:37:00.102Z,0.60
2024-01-15T00:38:00.182Z,0.57
2024-01-15T00:39:00.227Z,0.58
2024-01-15T00:40:00.283Z,0.57
2024-01-15T00:41:00.313Z,0.58
2024-01-15T00:42:00.366Z,0.57
2024-01-15T00:43:00.417Z,0.58
2024-01-15T00:44:00.453Z,0.59
2024-01-15T00:45:00.490Z,0.58
2024-01-15T00:46:00.567Z,0.60
2024-01-15T00:47:00.626Z,0.59
2024-01-15T00:48:00.747Z,0.58
2024-01-15T00:49:00.849Z,0.58
2024-01-15T00:50:00.739Z,0.58
2024-01-15T00:51:00.803Z,0.57
2024-01-15T00:52:00.853Z,0.58
2024-01-15T00:53:00.906Z,0.58
2024-01-15T00:54:00.928Z,0.58
2024-01-15T00:55:00.967Z,0.57
2024-01-15T00:56:01.012Z,0.58
2024-01-15T00:57:01.049Z,0.58
2024-01-15T00:58:01.073Z,0.57
2024-01-15T00:59:01.087Z,0.57
2024-01-15T01:00:02.957Z,0.58
2024-01-15T01:01:01.181Z,0.58
2024-01-15T01:02:01.130Z,0.59
2024-01-15T01:03:01.235Z,0.59
2024-01-15T01:04:01.301Z,0.58
2024-01-15T01:05:01.177Z,0.58
2024-01-15T01:06:01.185Z,0.57
2024-01-15T01:07:01.224Z,0.57
2024-01-15T01:08:01.178Z,0.57
2024-01-15T01:09:01.185Z,0.57
2024-01-15T01:10:01.201Z,0.57
2024-01-15T01:11:01.214Z,0.59
2024-01-15T01:12:01.224Z,0.57
2024-01-15T01:13:01.246Z,0.58
2024-01-15T01:14:01.242Z,0.57
2024-01-15T01:15:01.266Z,0.58
2024-01-15T01:16:01.298Z,0.57
2024-01-15T01:17:01.287Z,0.57
2024-01-15T01:18:01.429Z,0.57
2024-01-15T01:19:01.470Z,0.56
2024-01-15T01:20:01.577Z,0.57
2024-01-15T01:21:01.358Z,0.57
2024-01-15T01:22:01.352Z,0.57
2024-01-15T01:23:01.352Z,0.57
2024-01-15T01:24:01.377Z,0.56
2024-01-15T01:25:01.383Z,0.57
2024-01-15T01:26:01.385Z,0.57
2024-01-15T01:27:01.397Z,0.56
2024-01-15T01:28:01.401Z,0.58
2024-01-15T01:29:01.422Z,0.57
2024-01-15T01:30:01.437Z,0.57
2024-01-15T01:31:01.534Z,0.57
2024-01-15T01:32:01.458Z,0.58
2024-01-15T01:33:01.499Z,0.57
2024-01-15T01:34:01.603Z,0.57
2024-01-15T01:35:01.533Z,0.58
2024-01-15T01:36:01.503Z,0.57
2024-01-15T01:37:01.521Z,0.57
2024-01-15T01:38:01.512Z,0.56
2024-01-15T01:39:01.538Z,0.57
2024-01-15T01:40:01.605Z,0.58
2024-01-15T01:41:01.551Z,0.56
2024-01-15T01:42:01.542Z,0.57
2024-01-15T01:43:01.560Z,0.58
2024-01-15T01:44:01.575Z,0.57
2024-01-15T01:45:01.658Z,0.57
2024-01-15T01:46:01.773Z,0.56
2024-01-15T01:47:01.602Z,0.57
2024-01-15T01:48:01.741Z,0.57
2024-01-15T01:49:01.767Z,0.57
2024-01-15T01:50:01.629Z,0.57
2024-01-15T01:51:01.621Z,0.56
2024-01-15T01:52:01.625Z,0.56
2024-01-15T01:53:01.639Z,0.57
2024-01-15T01:54:01.655Z,0.58
2024-01-15T01:55:01.658Z,0.56
2024-01-15T01:56:01.664Z,0.56
2024-01-15T01:57:01.679Z,0.57
2024-01-15T01:58:01.685Z,0.58
2024-01-15T01:59:01.687Z,0.58
2024-01-15T02:00:01.714Z,0.57
2024-01-15T02:01:01.985Z,0.57
2024-01-15T02:02:01.711Z,0.57
2024-01-15T02:03:01.718Z,0.56
2024-01-15T02:04:01.906Z,0.57
2024-01-15T02:05:01.804Z,0.57
2024-01-15T02:06:02.064Z,0.56
2024-01-15T02:07:01.860Z,0.58
2024-01-15T02:08:01.784Z,0.57
2024-01-15T02:09:01.814Z,0.56
2024-01-15T02:10:01.829Z,0.57
2024-01-15T02:11:01.806Z,0.57
2024-01-15T02:12:01.820Z,0.58
2024-01-15T02:13:01.844Z,0.57
2024-01-15T02:14:01.844Z,0.57
2024-01-15T02:15:01.856Z,0.57
2024-01-15T02:16:01.869Z,0.57
2024-01-15T02:17:01.889Z,0.56
2024-01-15T02:18:02.105Z,0.57
2024-01-15T02:19:01.982Z,0.57
2024-01-15T02:20:01.976Z,0.56
2024-01-15T02:21:01.934Z,0.57
2024-01-15T02:22:01.944Z,0.57
2024-01-15T02:23:01.974Z,0.57
2024-01-15T02:24:01.987Z,0.57
2024-01-15T02:25:01.974Z,0.57
2024-01-15T02:26:01.990Z,0.56
2024-01-15T02:27:02.000Z,0.57
2024-01-15T02:28:02.018Z,0.56
2024-01-15T02:29:02.031Z,0.58
2024-01-15T02:30:02.045Z,0.57
2024-01-15T02:31:02.153Z,0.57
2024-01-15T02:32:02.077Z,0.58
2024-01-15T02:33:02.169Z,0.56
2024-01-15T02:34:02.216Z,0.57
2024-01-15T02:35:02.205Z,0.56
2024-01-15T02:36:02.132Z,0.56
2024-01-15T02:37:02.151Z,0.56
2024-01-15T02:38:02.157Z,0.57
2024-01-15T02:39:02.173Z,0.57
2024-01-15T02:40:02.195Z,0.57
2024-01-15T02:41:02.209Z,0.55
2024-01-15T02:42:02.217Z,0.57
2024-01-15T02:43:02.234Z,0.57
2024-01-15T02:44:02.252Z,0.55
2024-01-15T02:45:02.293Z,0.58
2024-01-15T02:46:02.299Z,0.56
2024-01-15T02:47:02.324Z,0.55
2024-01-15T02:48:02.387Z,0.57
2024-01-15T02:49:02.418Z,0.56
2024-01-15T02:50:02.444Z,0.57
2024-01-15T02:51:02.376Z,0.57
2024-01-15T02:52:02.396Z,0.56
2024-01-15T02:53:02.411Z,0.58
2024-01-15T02:54:02.418Z,0.56
2024-01-15T02:55:02.475Z,0.55
2024-01-15T02:56:02.499Z,0.58
2024-01-15T02:57:02.480Z,0.56
2024-01-15T02:58:02.512Z,0.56
2024-01-15T02:59:02.519Z,0.56
2024-01-15T03:00:02.538Z,0.55
2024-01-15T03:01:02.784Z,0.57
2024-01-15T03:02:02.567Z,0.57
2024-01-15T03:03:02.604Z,0.58
2024-01-15T03:04:02.713Z,0.57
2024-01-15T03:05:02.678Z,0.56
2024-01-15T03:06:02.657Z,0.56
2024-01-15T03:07:02.669Z,0.57
2024-01-15T03:08:02.669Z,0.56
2024-01-15T03:09:02.683Z,0.57
2024-01-15T03:10:02.751Z,0.57
2024-01-15T03:11:02.824Z,0.57
2024-01-15T03:12:02.875Z,0.56
2024-01-15T03:13:02.938Z,0.57
2024-01-15T03:14:02.990Z,0.56
2024-01-15T03:15:03.048Z,0.58
2024-01-15T03:16:03.112Z,0.56
2024-01-15T03:17:03.151Z,0.57
2024-01-15T03:18:03.210Z,0.57
2024-01-15T03:19:03.295Z,0.56
2024-01-15T03:20:03.276Z,0.57
2024-01-15T03:21:03.264Z,0.56
2024-01-15T03:22:03.296Z,0.57
2024-01-15T03:23:03.325Z,0.56
2024-01-15T03:24:03.368Z,0.55
2024-01-15T03:25:03.407Z,0.56
2024-01-15T03:26:03.415Z,0.56
2024-01-15T03:27:03.471Z,0.56
2024-01-15T03:28:03.483Z,0.56
2024-01-15T03:29:03.534Z,0.55
2024-01-15T03:30:03.624Z,0.56
2024-01-15T03:31:03.792Z,0.57
2024-01-15T03:32:03.756Z,0.56
2024-01-15T03:33:03.856Z,0.56
2024-01-15T03:34:03.971Z,0.58
2024-01-15T03:35:04.173Z,0.57
2024-01-15T03:36:04.038Z,0.56
2024-01-15T03:37:04.126Z,0.56
2024-01-15T03:38:04.225Z,0.56
2024-01-15T03:39:04.285Z,0.54
2024-01-15T03:40:04.491Z,0.56
2024-01-15T03:41:04.459Z,0.56
2024-01-15T03:42:04.563Z,0.57
2024-01-15T03:43:04.611Z,0.56
2024-01-15T03:44:04.693Z,0.54
2024-01-15T03:45:04.776Z,0.57
2024-01-15T03:46:04.851Z,0.56
2024-01-15T03:47:04.915Z,0.56
2024-01-15T03:48:05.198Z,0.57
2024-01-15T03:49:05.170Z,0.57
2024-01-15T03:50:05.127Z,0.56
2024-01-15T03:51:05.311Z,0.57
2024-01-15T03:52:05.265Z,0.57
2024-01-15T03:53:05.332Z,0.57
2024-01-15T03:54:05.437Z,0.56
2024-01-15T03:55:05.587Z,0.57
2024-01-15T03:56:05.529Z,0.56
2024-01-15T03:57:05.619Z,0.56
2024-01-15T03:58:05.638Z,0.56
2024-01-15T03:59:05.690Z,0.56
2024-01-15T04:00:05.780Z,0.57
2024-01-15T04:01:05.885Z,0.57
2024-01-15T04:02:05.869Z,0.56
2024-01-15T04:03:05.962Z,0.56
2024-01-15T04:04:06.085Z,0.57
2024-01-15T04:05:06.027Z,0.56
2024-01-15T04:06:06.243Z,0.57
2024-01-15T04:07:06.212Z,0.56
2024-01-15T04:08:06.194Z,0.57
2024-01-15T04:09:06.279Z,0.55
2024-01-15T04:10:06.307Z,0.56
2024-01-15T04:11:06.364Z,0.56
2024-01-15T04:12:06.454Z,0.54
2024-01-15T04:13:06.481Z,0.56
2024-01-15T04:14:06.520Z,0.54
2024-01-15T04:15:06.602Z,0.55
2024-01-15T04:16:06.628Z,0.56
2024-01-15T04:17:06.688Z,0.55
2024-01-15T04:18:06.836Z,0.56
2024-01-15T04:19:06.979Z,0.57
2024-01-15T04:20:06.833Z,0.56
2024-01-15T04:21:06.910Z,0.56
2024-01-15T04:22:06.964Z,0.57
2024-01-15T04:23:06.981Z,0.56
2024-01-15T04:24:07.046Z,0.56
2024-01-15T04:25:07.081Z,0.56
2024-01-15T04:26:07.122Z,0.56
2024-01-15T04:27:07.179Z,0.56
2024-01-15T04:28:07.239Z,0.55
2024-01-15T04:29:07.311Z,0.57
2024-01-15T04:30:07.400Z,0.55
2024-01-15T04:31:07.518Z,0.57
2024-01-15T04:32:07.524Z,0.55
2024-01-15T04:33:07.671Z,0.56
2024-01-15T04:34:07.688Z,0.56
2024-01-15T04:35:07.641Z,0.57
2024-01-15T04:36:07.763Z,0.57
2024-01-15T04:37:07.785Z,0.56
2024-01-15T04:38:07.775Z,0.57
2024-01-15T04:39:07.869Z,0.56
2024-01-15T04:40:07.883Z,0.57
2024-01-15T04:41:07.929Z,0.56
2024-01-15T04:42:08.051Z,0.57
2024-01-15T04:43:08.038Z,0.57
2024-01-15T04:44:08.086Z,0.57
2024-01-15T04:45:08.155Z,0.57
2024-01-15T04:46:08.191Z,0.57
2024-01-15T04:47:08.240Z,0.57
2024-01-15T04:48:08.367Z,0.56
2024-01-15T04:49:08.383Z,0.56
2024-01-15T04:50:08.381Z,0.56
2024-01-15T04:51:08.462Z,0.57
2024-01-15T04:52:08.481Z,0.57
2024-01-15T04:53:11.857Z,0.57
2024-01-15T04:54:08.572Z,0.57
2024-01-15T04:55:08.544Z,0.57
2024-01-15T04:56:08.551Z,0.57
2024-01-15T04:57:08.574Z,0.57
2024-01-15T04:58:15.901Z,0.50
2024-01-15T04:59:15.921Z,0.50
2024-01-15T05:00:16.022Z,0.50
2024-01-15T05:01:16.044Z,0.50
2024-01-15T05:02:15.913Z,0.50
2024-01-15T05:03:15.985Z,0.51
2024-01-15T05:04:16.070Z,0.51
2024-01-15T05:05:15.951Z,0.51
2024-01-15T05:06:16.034Z,0.52
2024-01-15T05:07:15.957Z,0.51
2024-01-15T05:08:15.967Z,0.51
2024-01-15T05:09:15.981Z,0.51
2024-01-15T05:10:15.982Z,0.51
2024-01-15T05:11:15.985Z,0.51
2024-01-15T05:12:16.040Z,0.50
2024-01-15T05:13:16.037Z,0.51
2024-01-15T05:14:16.045Z,0.51
2024-01-15T05:15:16.078Z,0.51
2024-01-15T05:16:16.117Z,0.52
2024-01-15T05:17:16.086Z,0.52
2024-01-15T05:18:16.226Z,0.51
2024-01-15T05:19:16.205Z,0.52
2024-01-15T05:20:16.381Z,0.52
2024-01-15T05:21:16.187Z,0.52
2024-01-15T05:22:16.138Z,0.52
2024-01-15T05:23:16.154Z,0.51
2024-01-15T05:24:16.193Z,0.51
2024-01-15T05:25:16.172Z,0.52
2024-01-15T05:26:16.188Z,0.53
2024-01-15T05:27:16.214Z,0.51
2024-01-15T05:28:16.203Z,0.50
2024-01-15T05:29:16.214Z,0.52
2024-01-15T05:30:16.315Z,0.51
2024-01-15T05:31:16.294Z,0.52
2024-01-15T05:32:16.243Z,0.51
2024-01-15T05:33:16.368Z,0.52
2024-01-15T05:34:16.309Z,0.52
2024-01-15T05:35:16.276Z,0.51
2024-01-15T05:36:16.327Z,0.52
2024-01-15T05:37:16.314Z,0.51
2024-01-15T05:38:16.311Z,0.52
2024-01-15T05:39:16.377Z,0.52
2024-01-15T05:40:16.330Z,0.52
2024-01-15T05:41:16.349Z,0.51
2024-01-15T05:42:16.409Z,0.52
2024-01-15T05:43:16.388Z,0.51
2024-01-15T05:44:16.376Z,0.53
2024-01-15T05:45:16.409Z,0.52
2024-01-15T05:46:16.395Z,0.52
2024-01-15T05:47:16.401Z,0.52
2024-01-15T05:48:16.499Z,0.52
2024-01-15T05:49:16.570Z,0.50
2024-01-15T05:50:16.441Z,0.52
2024-01-15T05:51:16.454Z,0.52
2024-01-15T05:52:16.457Z,0.51
2024-01-15T05:53:16.452Z,0.52
2024-01-15T05:54:16.501Z,0.52
2024-01-15T05:55:16.480Z,0.52
2024-01-15T05:56:16.481Z,0.52
2024-01-15T05:57:16.512Z,0.52
2024-01-15T05:58:16.591Z,0.52
2024-01-15T05:59:16.511Z,0.51
2024-01-15T06:00:16.583Z,0.52
2024-01-15T06:01:16.620Z,0.51
2024-01-15T06:02:16.620Z,0.52
2024-01-15T06:03:16.603Z,0.51
2024-01-15T06:04:16.814Z,0.52
2024-01-15T06:05:16.630Z,0.52
2024-01-15T06:06:16.781Z,0.52
2024-01-15T06:07:16.685Z,0.52
2024-01-15T06:08:16.737Z,0.53
2024-01-15T06:09:16.871Z,0.52
2024-01-15T06:10:16.843Z,0.52
2024-01-15T06:11:16.897Z,0.52
2024-01-15T06:12:16.961Z,0.53
2024-01-15T06:13:16.995Z,0.52
2024-01-15T06:14:17.040Z,0.53
2024-01-15T06:15:17.115Z,0.51
2024-01-15T06:16:17.135Z,0.52
2024-01-15T06:17:17.182Z,0.52
2024-01-15T06:18:17.416Z,0.52
2024-01-15T06:19:17.394Z,0.53
2024-01-15T06:20:17.323Z,0.52
2024-01-15T06:21:17.514Z,0.52
2024-01-15T06:22:17.447Z,0.52
2024-01-15T06:23:20.629Z,0.52
2024-01-15T06:24:17.546Z,0.51
2024-01-15T06:25:17.504Z,0.52
2024-01-15T06:26:17.524Z,0.52
2024-01-15T06:27:17.588Z,0.51
2024-01-15T06:28:17.553Z,0.49
2024-01-15T06:29:17.568Z,0.50
2024-01-15T06:30:17.626Z,0.50
2024-01-15T06:31:17.697Z,0.50
2024-01-15T06:32:17.603Z,0.52
2024-01-15T06:33:17.737Z,0.53
2024-01-15T06:34:17.819Z,0.56
2024-01-15T06:35:21.012Z,0.57
2024-01-15T06:36:17.712Z,0.57
2024-01-15T06:37:17.654Z,0.57
2024-01-15T06:38:17.663Z,0.58
2024-01-15T06:39:17.686Z,0.59
2024-01-15T06:40:17.685Z,0.63
2024-01-15T06:41:17.692Z,0.62
2024-01-15T06:42:17.716Z,0.65
2024-01-15T06:43:17.722Z,0.65
2024-01-15T06:44:17.722Z,0.66
2024-01-15T06:45:17.742Z,0.68
2024-01-15T06:46:17.735Z,0.65
2024-01-15T06:47:17.742Z,0.68
2024-01-15T06:48:17.944Z,0.68
2024-01-15T06:49:17.870Z,0.68
2024-01-15T06:50:17.784Z,0.70
2024-01-15T06:51:17.908Z,0.69
2024-01-15T06:52:17.793Z,0.70
2024-01-15T06:53:17.817Z,0.71
2024-01-15T06:54:17.886Z,0.69
2024-01-15T06:55:17.845Z,0.70
2024-01-15T06:56:17.999Z,0.71
2024-01-15T06:57:17.971Z,0.73
2024-01-15T06:58:17.963Z,0.73
2024-01-15T06:59:20.239Z,0.73
2024-01-15T07:00:18.158Z,0.73
2024-01-15T07:01:18.364Z,0.74
2024-01-15T07:02:18.217Z,0.73
2024-01-15T07:03:18.388Z,0.74
2024-01-15T07:04:18.326Z,0.73
2024-01-15T07:05:18.350Z,0.75
2024-01-15T07:06:18.419Z,0.74
2024-01-15T07:07:18.393Z,0.74
2024-01-15T07:08:18.453Z,0.74
2024-01-15T07:09:18.510Z,0.75
2024-01-15T07:10:18.529Z,0.75
2024-01-15T07:11:18.601Z,0.76
2024-01-15T07:12:18.671Z,0.77
2024-01-15T07:13:18.651Z,0.76
2024-01-15T07:14:18.699Z,0.76
2024-01-15T07:15:18.848Z,0.77
2024-01-15T07:16:34.214Z,0.77
2024-01-15T07:17:19.802Z,0.77
2024-01-15T07:18:18.969Z,0.77
2024-01-15T07:19:18.977Z,0.77
2024-01-15T07:20:18.898Z,0.77
2024-01-15T07:21:18.980Z,0.79
2024-01-15T07:22:18.840Z,0.78
2024-01-15T07:23:18.897Z,0.77
2024-01-15T07:24:18.907Z,0.77
2024-01-15T07:25:18.887Z,0.78
2024-01-15T07:26:18.898Z,0.78
2024-01-15T07:27:18.931Z,0.76
2024-01-15T07:28:18.916Z,0.77
2024-01-15T07:29:18.953Z,0.75
2024-01-15T07:30:19.031Z,0.78
2024-01-15T07:31:19.019Z,0.90
2024-01-15T07:32:19.079Z,1.04
2024-01-15T07:33:19.172Z,1.18
2024-01-15T07:34:19.236Z,1.27
2024-01-15T07:35:19.167Z,1.30
2024-01-15T07:36:19.216Z,1.19
2024-01-15T07:37:19.201Z,1.15
2024-01-15T07:38:19.265Z,1.13
2024-01-15T07:39:19.384Z,1.15
2024-01-15T07:40:19.426Z,1.12
2024-01-15T07:41:19.497Z,1.14
2024-01-15T07:42:19.623Z,1.14
2024-01-15T07:43:19.640Z,1.16
2024-01-15T07:44:19.682Z,1.20
2024-01-15T07:45:19.825Z,1.24
2024-01-15T07:46:19.787Z,1.26
2024-01-15T07:47:19.850Z,1.27
2024-01-15T07:48:20.085Z,1.28
2024-01-15T07:49:20.034Z,1.36
2024-01-15T07:50:19.960Z,1.37
2024-01-15T07:51:20.011Z,1.40
2024-01-15T07:52:19.995Z,1.43
2024-01-15T07:53:20.051Z,1.53
2024-01-15T07:54:20.107Z,1.53
2024-01-15T07:55:20.162Z,1.55
2024-01-15T07:56:20.114Z,1.62
2024-01-15T07:57:20.187Z,1.68
2024-01-15T07:58:21.199Z,1.69
2024-01-15T07:59:20.167Z,1.70
2024-01-15T08:00:20.175Z,1.73
2024-01-15T08:01:20.258Z,1.76
2024-01-15T08:02:20.188Z,1.87
2024-01-15T08:03:20.266Z,1.95
2024-01-15T08:04:20.435Z,1.99
2024-01-15T08:05:20.211Z,2.02
2024-01-15T08:06:20.287Z,2.10
2024-01-15T08:07:20.299Z,2.16
2024-01-15T08:08:20.255Z,2.16
2024-01-15T08:09:20.278Z,2.25
2024-01-15T08:10:20.266Z,2.28
2024-01-15T08:11:20.279Z,2.32
2024-01-15T08:12:20.320Z,2.33
2024-01-15T08:13:20.338Z,2.37
2024-01-15T08:14:20.417Z,2.35
2024-01-15T08:15:20.502Z,2.38
2024-01-15T08:16:20.450Z,2.41
2024-01-15T08:17:20.541Z,2.47
2024-01-15T08:18:20.607Z,2.56
2024-01-15T08:19:20.697Z,2.53
2024-01-15T08:20:20.657Z,2.39
2024-01-15T08:21:20.609Z,2.37
2024-01-15T08:22:20.633Z,2.35
2024-01-15T08:23:20.652Z,2.24
2024-01-15T08:24:20.718Z,2.14
2024-01-15T08:25:20.773Z,2.08
2024-01-15T08:26:21.561Z,2.08
2024-01-15T08:27:20.901Z,2.07
2024-01-15T08:28:20.918Z,2.04
2024-01-15T08:29:20.924Z,2.03
2024-01-15T08:30:20.995Z,2.04
2024-01-15T08:31:21.023Z,2.07
2024-01-15T08:32:20.997Z,2.04
2024-01-15T08:33:22.300Z,2.06
2024-01-15T08:34:21.694Z,2.12
2024-01-15T08:35:21.595Z,2.12
2024-01-15T08:36:21.019Z,2.12
2024-01-15T08:37:22.010Z,2.13
2024-01-15T08:38:20.994Z,2.15
2024-01-15T08:39:21.049Z,2.20
2024-01-15T08:40:20.992Z,2.27
2024-01-15T08:41:20.999Z,2.44
2024-01-15T08:42:21.022Z,2.58
2024-01-15T08:43:20.985Z,2.57
2024-01-15T08:44:20.979Z,2.63
2024-01-15T08:45:21.020Z,2.72
2024-01-15T08:46:20.992Z,2.82
2024-01-15T08:47:21.059Z,2.88
2024-01-15T08:48:21.144Z,2.89
2024-01-15T08:49:21.277Z,2.94
2024-01-15T08:50:21.228Z,3.08
2024-01-15T08:51:21.314Z,3.09
2024-01-15T08:52:21.413Z,3.23
2024-01-15T08:53:21.402Z,3.36
2024-01-15T08:54:21.506Z,3.30
2024-01-15T08:55:21.522Z,3.41
2024-01-15T08:56:21.581Z,3.43
2024-01-15T08:57:21.673Z,3.50
2024-01-15T08:58:21.689Z,3.57
2024-01-15T08:59:21.738Z,3.74
2024-01-15T09:00:21.926Z,3.67
2024-01-15T09:01:21.951Z,3.80
2024-01-15T09:02:21.904Z,3.99
2024-01-15T09:03:22.014Z,3.92
2024-01-15T09:04:22.108Z,4.01
2024-01-15T09:05:22.101Z,4.14
2024-01-15T09:06:22.165Z,4.20
2024-01-15T09:07:22.123Z,4.23
2024-01-15T09:08:22.168Z,4.35
2024-01-15T09:09:22.440Z,4.35
2024-01-15T09:10:22.270Z,4.31
2024-01-15T09:11:22.272Z,4.58
2024-01-15T09:12:22.317Z,4.60
2024-01-15T09:13:22.345Z,4.65
2024-01-15T09:14:32.614Z,4.82
2024-01-15T09:15:23.382Z,4.80
2024-01-15T09:16:22.425Z,4.83
2024-01-15T09:17:22.360Z,4.87
2024-01-15T09:18:22.410Z,5.01
2024-01-15T09:19:22.425Z,5.15
2024-01-15T09:20:22.327Z,5.32
2024-01-15T09:21:22.334Z,5.31
2024-01-15T09:22:22.315Z,5.35
2024-01-15T09:23:22.314Z,5.28
2024-01-15T09:24:27.665Z,5.30
2024-01-15T09:25:23.301Z,5.30
2024-01-15T09:26:22.287Z,5.30
2024-01-15T09:27:22.338Z,5.15
2024-01-15T09:28:22.281Z,5.04
2024-01-15T09:29:22.303Z,4.90
2024-01-15T09:30:22.323Z,4.83
2024-01-15T09:31:22.474Z,4.69
2024-01-15T09:32:22.307Z,4.50
2024-01-15T09:33:22.402Z,4.40
2024-01-15T09:34:22.346Z,4.17
2024-01-15T09:35:24.343Z,4.09
2024-01-15T09:36:22.377Z,3.96
2024-01-15T09:37:32.192Z,3.79
2024-01-15T09:38:23.346Z,3.78
2024-01-15T09:39:22.356Z,3.64
2024-01-15T09:40:22.318Z,3.59
2024-01-15T09:41:22.315Z,3.50
2024-01-15T09:42:22.540Z,3.39
2024-01-15T09:43:22.313Z,3.34
2024-01-15T09:44:22.320Z,3.18
2024-01-15T09:45:22.323Z,3.14
2024-01-15T09:46:22.327Z,3.06
2024-01-15T09:47:22.311Z,2.91
2024-01-15T09:48:22.406Z,2.89
2024-01-15T09:49:22.503Z,2.86
2024-01-15T09:50:22.465Z,2.76
2024-01-15T09:51:22.379Z,2.64
2024-01-15T09:52:22.475Z,2.63
2024-01-15T09:53:22.415Z,2.62
2024-01-15T09:54:22.441Z,2.60
2024-01-15T09:55:22.442Z,2.52
2024-01-15T09:56:22.462Z,2.50
2024-01-15T09:57:22.515Z,2.44
2024-01-15T09:58:22.464Z,2.36
2024-01-15T09:59:22.461Z,2.36
2024-01-15T10:00:22.490Z,2.29
2024-01-15T10:01:22.647Z,2.31
2024-01-15T10:02:22.599Z,2.26
2024-01-15T10:03:22.720Z,2.25
2024-01-15T10:04:22.738Z,2.20
2024-01-15T10:05:22.594Z,2.15
2024-01-15T10:06:23.240Z,2.16
2024-01-15T10:07:22.676Z,2.16
2024-01-15T10:08:22.663Z,2.11
2024-01-15T10:09:22.755Z,2.08
2024-01-15T10:10:22.742Z,2.05
2024-01-15T10:11:23.748Z,2.01
2024-01-15T10:12:22.802Z,2.05
2024-01-15T10:13:22.756Z,1.96
2024-01-15T10:14:22.749Z,1.99
2024-01-15T10:15:22.755Z,1.95
2024-01-15T10:16:22.763Z,1.91
2024-01-15T10:17:22.763Z,1.90
2024-01-15T10:18:22.835Z,1.89
2024-01-15T10:19:22.875Z,1.86
2024-01-15T10:20:22.802Z,1.86
2024-01-15T10:21:22.858Z,1.84
2024-01-15T10:22:22.820Z,1.79
2024-01-15T10:23:22.868Z,1.81
2024-01-15T10:24:22.969Z,1.77
2024-01-15T10:25:23.604Z,1.74
2024-01-15T10:26:24.098Z,1.73
2024-01-15T10:27:24.211Z,1.77
2024-01-15T10:28:23.181Z,1.74
2024-01-15T10:29:23.233Z,1.74
2024-01-15T10:30:24.296Z,1.72
2024-01-15T10:31:26.185Z,1.71
2024-01-15T10:32:23.285Z,1.73
2024-01-15T10:33:23.385Z,1.72
2024-01-15T10:34:24.224Z,1.71
2024-01-15T10:35:23.239Z,1.72
2024-01-15T10:36:23.257Z,1.68
2024-01-15T10:37:25.217Z,1.66
2024-01-15T10:38:23.235Z,1.67
2024-01-15T10:39:23.221Z,1.67
2024-01-15T10:40:23.179Z,1.67
2024-01-15T10:41:23.172Z,1.68
2024-01-15T10:42:23.200Z,1.69
2024-01-15T10:43:25.135Z,1.66
2024-01-15T10:44:23.159Z,1.64
2024-01-15T10:45:23.232Z,1.64
2024-01-15T10:46:23.153Z,1.66
2024-01-15T10:47:23.183Z,1.64
2024-01-15T10:48:23.236Z,1.66
2024-01-15T10:49:23.241Z,1.62
2024-01-15T10:50:23.146Z,1.60
2024-01-15T10:51:23.230Z,1.61
2024-01-15T10:52:23.130Z,1.60
2024-01-15T10:53:23.121Z,1.60
2024-01-15T10:54:23.155Z,1.63
2024-01-15T10:55:23.132Z,1.59
2024-01-15T10:56:23.123Z,1.62
2024-01-15T10:57:23.173Z,1.60
2024-01-15T10:58:23.117Z,1.60
2024-01-15T10:59:23.104Z,1.59
2024-01-15T11:00:23.135Z,1.61
2024-01-15T11:01:24.951Z,1.57
2024-01-15T11:02:23.118Z,1.57
2024-01-15T11:03:23.192Z,1.58
2024-01-15T11:04:24.300Z,1.56
2024-01-15T11:05:23.125Z,1.56
2024-01-15T11:06:23.218Z,1.56
2024-01-15T11:07:24.893Z,1.55
2024-01-15T11:08:23.081Z,1.54
2024-01-15T11:09:23.092Z,1.55
2024-01-15T11:10:23.071Z,1.55
2024-01-15T11:11:23.062Z,1.56
2024-01-15T11:12:23.109Z,1.55
2024-01-15T11:13:25.474Z,1.54
2024-01-15T11:14:23.049Z,1.54
2024-01-15T11:15:23.123Z,1.54
2024-01-15T11:16:23.025Z,1.54
2024-01-15T11:17:23.053Z,1.51
2024-01-15T11:18:23.113Z,1.57
2024-01-15T11:19:23.099Z,1.51
2024-01-15T11:20:22.998Z,1.49
2024-01-15T11:21:23.188Z,1.53
2024-01-15T11:22:22.989Z,1.51
2024-01-15T11:23:22.984Z,1.50
2024-01-15T11:24:23.038Z,1.49
2024-01-15T11:25:23.008Z,1.49
2024-01-15T11:26:23.633Z,1.52
2024-01-15T11:27:22.979Z,1.48
2024-01-15T11:28:22.960Z,1.48
2024-01-15T11:29:24.419Z,1.47
2024-01-15T11:30:23.051Z,1.53
2024-01-15T11:31:23.003Z,1.49
2024-01-15T11:32:22.947Z,1.50
2024-01-15T11:33:23.016Z,1.45
2024-01-15T11:34:24.005Z,1.45
2024-01-15T11:35:24.363Z,1.46
2024-01-15T11:36:22.965Z,1.46
2024-01-15T11:37:22.930Z,1.44
2024-01-15T11:38:22.916Z,1.44
2024-01-15T11:39:22.959Z,1.45
2024-01-15T11:40:22.916Z,1.42
2024-01-15T11:41:25.111Z,1.38
2024-01-15T11:42:22.962Z,1.38
2024-01-15T11:43:22.946Z,1.39
2024-01-15T11:44:22.905Z,1.40
2024-01-15T11:45:23.314Z,1.42
2024-01-15T11:46:22.909Z,1.44
2024-01-15T11:47:22.964Z,1.42
2024-01-15T11:48:22.948Z,1.46
2024-01-15T11:49:22.993Z,1.43
2024-01-15T11:50:22.900Z,1.43
2024-01-15T11:51:22.907Z,1.43
2024-01-15T11:52:22.890Z,1.41
2024-01-15T11:53:22.925Z,1.41
2024-01-15T11:54:22.900Z,1.41
2024-01-15T11:55:22.868Z,1.42
2024-01-15T11:56:22.840Z,1.40
2024-01-15T11:57:22.864Z,1.40
2024-01-15T11:58:22.843Z,1.40
2024-01-15T11:59:22.826Z,1.38
2024-01-15T12:00:22.916Z,1.37
2024-01-15T12:01:22.915Z,1.36
2024-01-15T12:02:22.827Z,1.37
2024-01-15T12:03:22.837Z,1.37
2024-01-15T12:04:22.928Z,1.35
2024-01-15T12:05:22.922Z,1.35
2024-01-15T12:06:22.898Z,1.34
2024-01-15T12:07:22.862Z,1.33
2024-01-15T12:08:22.814Z,1.33
2024-01-15T12:09:22.861Z,1.34
2024-01-15T12:10:22.857Z,1.26
2024-01-15T12:11:22.826Z,1.17
2024-01-15T12:12:22.855Z,1.02
2024-01-15T12:13:22.857Z,0.94
2024-01-15T12:14:22.890Z,0.98
2024-01-15T12:15:22.888Z,0.99
2024-01-15T12:16:22.867Z,1.06
2024-01-15T12:17:22.863Z,1.15
2024-01-15T12:18:23.048Z,1.21
2024-01-15T12:19:22.947Z,1.23
2024-01-15T12:20:22.857Z,1.23
2024-01-15T12:21:22.879Z,1.23
2024-01-15T12:22:22.892Z,1.21
2024-01-15T12:23:22.857Z,1.18
2024-01-15T12:24:22.955Z,1.16
2024-01-15T12:25:22.865Z,1.16
2024-01-15T12:26:22.863Z,1.14
2024-01-15T12:27:22.899Z,1.13
2024-01-15T12:28:22.940Z,1.11
2024-01-15T12:29:22.901Z,1.11
2024-01-15T12:30:22.988Z,1.09
2024-01-15T12:31:22.961Z,1.09
2024-01-15T12:32:22.901Z,1.07
2024-01-15T12:33:23.181Z,1.07
2024-01-15T12:34:23.001Z,1.05
2024-01-15T12:35:22.951Z,1.06
2024-01-15T12:36:23.054Z,1.05
2024-01-15T12:37:23.026Z,1.08
2024-01-15T12:38:23.054Z,1.06
2024-01-15T12:39:23.120Z,1.07
2024-01-15T12:40:23.120Z,1.06
2024-01-15T12:41:23.150Z,1.07
2024-01-15T12:42:23.238Z,1.05
2024-01-15T12:43:23.213Z,1.04
2024-01-15T12:44:23.267Z,1.07
2024-01-15T12:45:23.331Z,1.09
2024-01-15T12:46:23.351Z,1.06
2024-01-15T12:47:23.407Z,1.08
2024-01-15T12:48:23.533Z,1.08
2024-01-15T12:49:23.486Z,1.09
2024-01-15T12:50:23.433Z,1.11
2024-01-15T12:51:23.502Z,1.08
2024-01-15T12:52:23.491Z,1.09
2024-01-15T12:53:24.172Z,1.07
2024-01-15T12:54:23.580Z,1.10
2024-01-15T12:55:23.551Z,1.06
2024-01-15T12:56:23.580Z,1.08
2024-01-15T12:57:23.613Z,1.09
2024-01-15T12:58:23.619Z,1.12
2024-01-15T12:59:23.634Z,1.06
2024-01-15T13:00:23.749Z,1.07
2024-01-15T13:01:23.798Z,1.10
2024-01-15T13:02:23.694Z,1.10
2024-01-15T13:03:23.934Z,1.11
2024-01-15T13:04:26.064Z,1.08
2024-01-15T13:05:25.237Z,1.08
2024-01-15T13:06:24.068Z,1.08
2024-01-15T13:07:23.993Z,1.09
2024-01-15T13:08:23.995Z,1.08
2024-01-15T13:09:24.042Z,1.08
2024-01-15T13:10:26.196Z,1.13
2024-01-15T13:11:24.144Z,1.08
2024-01-15T13:12:24.166Z,1.08
2024-01-15T13:13:24.183Z,1.08
2024-01-15T13:14:24.198Z,1.08
2024-01-15T13:15:24.276Z,1.10
2024-01-15T13:16:26.264Z,1.09
2024-01-15T13:17:24.333Z,1.07
2024-01-15T13:18:24.331Z,1.09
2024-01-15T13:19:24.389Z,1.07